createdAt,value
2023-04-01T00:00:57.108Z,98.48
2023-04-01T00:03:24.222Z,98.73
2023-04-01T00:05:51.164Z,98.87
2023-04-01T00:08:18.345Z,98.85
2023-04-01T00:10:45.342Z,98.46
2023-04-01T00:13:11.776Z,98.74
2023-04-01T00:15:38.332Z,98.72
2023-04-01T00:18:05.728Z,98.61
2023-04-01T00:20:32.180Z,98.90
2023-04-01T00:22:58.604Z,98.53
2023-04-01T00:25:25.360Z,98.51
2023-04-01T00:27:51.914Z,98.65
2023-04-01T00:30:18.636Z,98.43
2023-04-01T00:32:45.133Z,98.59
2023-04-01T00:35:11.828Z,98.77
2023-04-01T00:37:38.725Z,99.12
2023-04-01T00:40:07.408Z,99.33
2023-04-01T00:42:33.951Z,99.33
2023-04-01T00:45:27.756Z,99.72
2023-04-01T00:47:54.783Z,99.73
2023-04-01T00:50:23.604Z,99.95
2023-04-01T00:52:50.320Z,100.00
2023-04-01T00:55:17.848Z,100.00
2023-04-01T00:57:45.410Z,100.00
2023-04-01T01:00:14.992Z,100.00
2023-04-01T01:02:46.472Z,100.00
2023-04-01T01:05:15.455Z,100.00
2023-04-01T01:07:52.926Z,100.00
2023-04-01T01:10:23.296Z,100.00
2023-04-01T01:13:08.342Z,100.00
2023-04-01T01:15:45.194Z,100.00
2023-04-01T01:18:46.258Z,100.00
2023-04-01T01:21:31.871Z,100.00
2023-04-01T01:24:12.253Z,100.00
2023-04-01T01:26:55.107Z,100.00
2023-04-01T01:29:21.429Z,100.00
2023-04-01T01:32:06.555Z,100.00
2023-04-01T01:34:38.224Z,100.00
2023-04-01T01:37:10.012Z,100.00
2023-04-01T01:39:37.204Z,100.00
2023-04-01T01:42:09.085Z,100.00
2023-04-01T01:44:36.696Z,100.00
2023-04-01T01:47:03.436Z,100.00
2023-04-01T01:49:31.526Z,100.00
2023-04-01T01:51:58.330Z,100.00
2023-04-01T01:54:24.888Z,100.00
2023-04-01T01:56:56.000Z,100.00
2023-04-01T01:59:23.416Z,100.00
2023-04-01T02:01:52.378Z,100.00
2023-04-01T02:04:19.350Z,100.00
2023-04-01T02:06:53.375Z,100.00
2023-04-01T02:09:19.992Z,100.00
2023-04-01T02:12:02.292Z,100.00
2023-04-01T02:14:40.492Z,100.00
2023-04-01T02:17:10.993Z,100.00
2023-04-01T02:19:39.963Z,100.00
2023-04-01T02:22:10.217Z,100.00
2023-04-01T02:24:37.458Z,100.00
2023-04-01T02:27:04.825Z,100.00
2023-04-01T02:29:31.336Z,100.00
2023-04-01T02:31:57.975Z,100.00
2023-04-01T02:34:25.535Z,100.00
2023-04-01T02:36:52.704Z,100.00
2023-04-01T02:39:19.360Z,100.00
2023-04-01T02:41:46.584Z,100.00
2023-04-01T02:44:14.271Z,100.00
2023-04-01T02:46:40.960Z,100.00
2023-04-01T02:49:07.716Z,100.00
2023-04-01T02:51:34.763Z,100.00
2023-04-01T02:54:01.282Z,100.00
2023-04-01T02:56:27.968Z,100.00
2023-04-01T02:58:54.925Z,100.00
2023-04-01T03:01:22.177Z,100.00
2023-04-01T03:03:48.663Z,100.00
2023-04-01T03:06:16.502Z,100.00
2023-04-01T03:08:43.262Z,100.00
2023-04-01T03:11:10.959Z,100.00
2023-04-01T03:13:37.466Z,100.00
2023-04-01T03:16:04.192Z,100.00
2023-04-01T03:18:30.642Z,100.00
2023-04-01T03:20:57.051Z,100.00
2023-04-01T03:23:25.171Z,100.00
2023-04-01T03:25:52.006Z,100.00
2023-04-01T03:28:18.502Z,100.00
2023-04-01T03:30:44.968Z,100.00
2023-04-01T03:33:11.400Z,100.00
2023-04-01T03:35:37.797Z,100.00
2023-04-01T03:38:04.317Z,100.00
2023-04-01T03:40:30.792Z,100.00
2023-04-01T03:42:57.436Z,100.00
2023-04-01T03:45:23.955Z,100.00
2023-04-01T03:47:50.486Z,100.00
2023-04-01T03:50:17.144Z,100.00
2023-04-01T03:52:43.556Z,100.00
2023-04-01T03:55:10.025Z,100.00
2023-04-01T03:57:36.523Z,100.00
2023-04-01T04:00:03.217Z,100.00
2023-04-01T04:02:29.694Z,100.00
2023-04-01T04:04:56.175Z,100.00
2023-04-01T04:07:22.624Z,100.00
2023-04-01T04:09:49.018Z,100.00
2023-04-01T04:12:15.644Z,100.00
2023-04-01T04:14:42.052Z,100.00
2023-04-01T04:17:16.903Z,100.00
2023-04-01T04:19:44.063Z,100.00
2023-04-01T04:22:10.521Z,100.00
2023-04-01T04:24:37.104Z,100.00
2023-04-01T04:27:04.341Z,100.00
2023-04-01T04:29:30.867Z,100.00
2023-04-01T04:31:57.448Z,100.00
2023-04-01T04:34:24.116Z,100.00
2023-04-01T04:36:50.569Z,100.00
2023-04-01T04:39:17.000Z,100.00
2023-04-01T04:41:43.407Z,100.00
2023-04-01T04:44:09.847Z,100.00
2023-04-01T04:46:38.112Z,100.00
2023-04-01T04:49:04.565Z,100.00
2023-04-01T04:51:31.004Z,100.00
2023-04-01T04:53:57.425Z,100.00
2023-04-01T04:56:26.236Z,100.00
2023-04-01T04:58:53.009Z,100.00
2023-04-01T05:01:20.270Z,100.00
2023-04-01T05:03:47.953Z,100.00
2023-04-01T05:06:16.008Z,100.00
2023-04-01T05:08:43.781Z,100.00
2023-04-01T05:11:13.961Z,100.00
2023-04-01T05:13:40.728Z,100.00
2023-04-01T05:16:15.852Z,100.00
2023-04-01T05:18:42.669Z,100.00
2023-04-01T05:21:11.136Z,100.00
2023-04-01T05:23:37.931Z,100.00
2023-04-01T05:26:06.201Z,100.00
2023-04-01T05:28:32.644Z,100.00
2023-04-01T05:31:01.260Z,100.00
2023-04-01T05:33:28.865Z,100.00
2023-04-01T05:35:55.646Z,100.00
2023-04-01T05:38:22.113Z,100.00
2023-04-01T05:40:48.601Z,100.00
2023-04-01T05:43:15.100Z,100.00
2023-04-01T05:45:41.500Z,100.00
2023-04-01T05:48:07.974Z,100.00
2023-04-01T05:50:34.492Z,100.00
2023-04-01T05:53:00.956Z,100.00
2023-04-01T05:55:27.353Z,100.00
2023-04-01T05:57:53.821Z,100.00
2023-04-01T06:00:20.939Z,100.00
2023-04-01T06:02:47.603Z,100.00
2023-04-01T06:05:20.307Z,100.00
2023-04-01T06:07:47.027Z,100.00
2023-04-01T06:10:16.442Z,100.00
2023-04-01T06:13:06.782Z,100.00
2023-04-01T06:15:38.057Z,100.00
2023-04-01T06:18:42.605Z,100.00
2023-04-01T06:21:31.009Z,100.00
2023-04-01T06:24:09.398Z,100.00
2023-04-01T06:26:59.340Z,100.00
2023-04-01T06:29:43.368Z,100.00
2023-04-01T06:32:19.260Z,100.00
2023-04-01T06:35:23.534Z,100.00
2023-04-01T06:38:12.740Z,100.00
2023-04-01T06:40:47.334Z,100.00
2023-04-01T06:43:28.902Z,100.00
2023-04-01T06:46:17.127Z,100.00
2023-04-01T06:49:16.657Z,100.00
2023-04-01T06:51:58.481Z,100.00
2023-04-01T06:54:39.668Z,100.00
2023-04-01T06:57:36.167Z,100.00
2023-04-01T07:00:06.031Z,100.00
2023-04-01T07:02:41.929Z,100.00
2023-04-01T07:05:08.559Z,100.00
2023-04-01T07:07:44.696Z,100.00
2023-04-01T07:10:15.590Z,100.00
2023-04-01T07:12:51.056Z,100.00
2023-04-01T07:15:21.545Z,100.00
2023-04-01T07:17:51.993Z,100.00
2023-04-01T07:20:24.515Z,100.00
2023-04-01T07:22:53.595Z,100.00
2023-04-01T07:25:38.269Z,100.00
2023-04-01T07:28:13.673Z,100.00
2023-04-01T07:30:52.468Z,100.00
2023-04-01T07:33:40.951Z,99.95
2023-04-01T07:36:14.709Z,99.79
2023-04-01T07:38:54.878Z,99.73
2023-04-01T07:41:35.074Z,99.10
2023-04-01T07:44:42.020Z,98.31
2023-04-01T07:47:17.444Z,97.32
2023-04-01T07:50:18.435Z,96.41
2023-04-01T07:53:06.656Z,96.30
2023-04-01T07:55:51.254Z,95.89
2023-04-01T07:58:24.181Z,95.80
2023-04-01T08:01:07.418Z,95.49
2023-04-01T08:03:55.802Z,95.22
2023-04-01T08:06:26.688Z,94.58
2023-04-01T08:09:03.714Z,93.67
2023-04-01T08:11:47.421Z,92.94
2023-04-01T08:14:26.617Z,92.12
2023-04-01T08:17:15.309Z,91.62
2023-04-01T08:20:03.425Z,91.02
2023-04-01T08:22:40.281Z,89.86
2023-04-01T08:25:08.757Z,89.46
2023-04-01T08:27:38.872Z,89.25
2023-04-01T08:30:26.480Z,88.76
2023-04-01T08:32:59.532Z,87.63
2023-04-01T08:35:42.910Z,86.82
2023-04-01T08:38:16.920Z,86.79
2023-04-01T08:40:55.404Z,85.64
2023-04-01T08:43:40.363Z,85.17
2023-04-01T08:46:15.805Z,84.10
2023-04-01T08:49:07.056Z,83.61
2023-04-01T08:51:55.118Z,83.53
2023-04-01T08:54:30.161Z,82.92
2023-04-01T08:57:27.740Z,82.50
2023-04-01T09:00:14.562Z,82.14
2023-04-01T09:02:52.362Z,82.71
2023-04-01T09:05:42.698Z,80.86
2023-04-01T09:08:22.025Z,80.57
2023-04-01T09:11:03.094Z,80.24
2023-04-01T09:13:51.919Z,80.06
2023-04-01T09:16:26.142Z,79.17
2023-04-01T09:19:17.448Z,79.49
2023-04-01T09:22:04.045Z,78.29
2023-04-01T09:24:34.785Z,77.38
2023-04-01T09:27:05.028Z,76.30
2023-04-01T09:29:43.947Z,75.34
2023-04-01T09:32:22.623Z,73.14
2023-04-01T09:35:22.482Z,73.02
2023-04-01T09:38:26.132Z,69.97
2023-04-01T09:41:29.783Z,69.59
2023-04-01T09:44:12.349Z,69.01
2023-04-01T09:47:00.816Z,69.65
2023-04-01T09:49:47.399Z,67.81
2023-04-01T09:52:22.894Z,68.75
2023-04-01T09:55:15.959Z,68.63
2023-04-01T09:58:03.648Z,67.62
2023-04-01T10:00:57.022Z,68.39
2023-04-01T10:03:32.837Z,68.11
2023-04-01T10:06:36.942Z,69.18
2023-04-01T10:09:32.863Z,67.92
2023-04-01T10:12:17.732Z,68.40
2023-04-01T10:15:17.372Z,68.29
2023-04-01T10:18:16.092Z,67.67
2023-04-01T10:21:01.187Z,67.12
2023-04-01T10:23:45.161Z,67.41
2023-04-01T10:26:33.438Z,66.78
2023-04-01T10:29:27.803Z,66.05
2023-04-01T10:32:28.070Z,66.02
2023-04-01T10:35:09.784Z,64.93
2023-04-01T10:37:55.259Z,64.55
2023-04-01T10:40:30.965Z,64.11
2023-04-01T10:43:21.216Z,64.16
2023-04-01T10:46:01.336Z,62.81
2023-04-01T10:48:41.389Z,62.94
2023-04-01T10:51:17.231Z,62.49
2023-04-01T10:54:18.990Z,62.63
2023-04-01T10:56:58.267Z,61.32
2023-04-01T11:00:00.955Z,60.57
2023-04-01T11:03:00.741Z,61.23
2023-04-01T11:05:53.196Z,61.89
2023-04-01T11:08:51.401Z,61.93
2023-04-01T11:11:27.300Z,62.20
2023-04-01T11:13:58.897Z,61.55
2023-04-01T11:16:49.343Z,59.67
2023-04-01T11:20:03.944Z,59.70
2023-04-01T11:23:11.167Z,60.05
2023-04-01T11:25:54.149Z,59.50
2023-04-01T11:28:54.664Z,59.80
2023-04-01T11:31:36.607Z,60.35
2023-04-01T11:34:30.816Z,59.10
2023-04-01T11:37:11.392Z,59.17
2023-04-01T11:40:00.228Z,58.71
2023-04-01T11:42:54.400Z,58.84
2023-04-01T11:45:28.608Z,58.39
2023-04-01T11:48:21.473Z,58.31
2023-04-01T11:50:59.919Z,57.05
2023-04-01T11:53:40.604Z,58.18
2023-04-01T11:56:28.833Z,60.10
2023-04-01T11:59:16.893Z,61.99
2023-04-01T12:01:52.966Z,62.77
2023-04-01T12:04:28.704Z,63.98
2023-04-01T12:07:04.518Z,64.45
2023-04-01T12:09:56.836Z,64.17
2023-04-01T12:12:28.820Z,64.78
2023-04-01T12:15:14.939Z,64.79
2023-04-01T12:17:51.908Z,64.42
2023-04-01T12:20:57.616Z,64.27
2023-04-01T12:23:37.940Z,63.93
2023-04-01T12:26:22.401Z,63.37
2023-04-01T12:29:19.928Z,63.18
2023-04-01T12:32:05.263Z,63.54
2023-04-01T12:35:03.359Z,62.16
2023-04-01T12:37:51.248Z,61.89
2023-04-01T12:40:47.099Z,61.38
2023-04-01T12:43:41.324Z,60.96
2023-04-01T12:46:44.794Z,60.35
2023-04-01T12:49:27.125Z,59.92
2023-04-01T12:52:03.220Z,59.37
2023-04-01T12:55:00.801Z,58.63
2023-04-01T12:57:33.526Z,58.13
2023-04-01T13:00:04.618Z,58.16
2023-04-01T13:02:52.314Z,57.25
2023-04-01T13:05:21.649Z,56.54
2023-04-01T13:08:01.637Z,55.75
2023-04-01T13:10:39.836Z,55.10
2023-04-01T13:13:33.302Z,54.17
2023-04-01T13:16:04.609Z,55.01
2023-04-01T13:18:51.201Z,54.49
2023-04-01T13:21:25.925Z,54.44
2023-04-01T13:24:05.984Z,53.88
2023-04-01T13:27:15.360Z,54.47
2023-04-01T13:29:45.882Z,54.63
2023-04-01T13:32:12.293Z,54.69
2023-04-01T13:34:50.759Z,63.71
2023-04-01T13:37:36.433Z,66.10
2023-04-01T13:40:13.872Z,70.00
2023-04-01T13:42:49.499Z,72.11
2023-04-01T13:45:32.105Z,74.71
2023-04-01T13:48:01.692Z,75.62
2023-04-01T13:50:31.633Z,77.96
2023-04-01T13:53:22.118Z,79.15
2023-04-01T13:55:56.091Z,79.83
2023-04-01T13:58:45.124Z,80.47
2023-04-01T14:01:38.543Z,81.53
2023-04-01T14:04:21.111Z,82.69
2023-04-01T14:07:05.741Z,83.83
2023-04-01T14:09:43.708Z,84.11
2023-04-01T14:12:16.595Z,84.68
2023-04-01T14:14:55.556Z,85.63
2023-04-01T14:17:32.712Z,85.66
2023-04-01T14:20:14.250Z,85.62
2023-04-01T14:22:51.777Z,86.61
2023-04-01T14:25:37.779Z,86.83
2023-04-01T14:28:20.226Z,88.49
2023-04-01T14:31:11.982Z,88.67
2023-04-01T14:33:58.222Z,90.53
2023-04-01T14:36:47.142Z,90.35
2023-04-01T14:39:31.171Z,89.85
2023-04-01T14:42:36.194Z,90.77
2023-04-01T14:45:45.590Z,91.72
2023-04-01T14:48:31.671Z,92.63
2023-04-01T14:51:04.906Z,92.60
2023-04-01T14:53:36.228Z,93.66
2023-04-01T14:56:04.076Z,95.23
2023-04-01T14:58:47.817Z,96.80
2023-04-01T15:01:36.571Z,97.23
2023-04-01T15:04:51.242Z,95.63
2023-04-01T15:07:37.488Z,95.69
2023-04-01T15:10:31.862Z,95.63
2023-04-01T15:13:31.469Z,95.92
2023-04-01T15:16:28.666Z,96.37
2023-04-01T15:19:07.771Z,96.83
2023-04-01T15:22:05.318Z,97.66
2023-04-01T15:24:44.069Z,97.57
2023-04-01T15:27:50.865Z,98.09
2023-04-01T15:30:23.785Z,98.02
2023-04-01T15:33:08.988Z,98.44
2023-04-01T15:36:11.025Z,98.90
2023-04-01T15:38:44.634Z,99.05
2023-04-01T15:41:39.881Z,98.85
2023-04-01T15:44:35.506Z,99.04
2023-04-01T15:47:27.197Z,99.60
2023-04-01T15:50:24.795Z,100.00
2023-04-01T15:53:31.766Z,100.00
2023-04-01T15:56:12.543Z,100.00
2023-04-01T15:58:50.867Z,100.00
2023-04-01T16:01:32.247Z,100.00
2023-04-01T16:04:17.550Z,100.00
2023-04-01T16:07:12.213Z,100.00
2023-04-01T16:09:44.978Z,100.00
2023-04-01T16:12:39.644Z,100.00
2023-04-01T16:15:43.616Z,100.00
2023-04-01T16:18:19.216Z,99.61
2023-04-01T16:21:06.820Z,99.58
2023-04-01T16:23:39.485Z,99.57
2023-04-01T16:26:29.907Z,99.06
2023-04-01T16:29:03.964Z,99.89
2023-04-01T16:31:36.124Z,100.00
2023-04-01T16:34:09.976Z,100.00
2023-04-01T16:36:51.502Z,100.00
2023-04-01T16:39:32.257Z,100.00
2023-04-01T16:42:07.691Z,100.00
2023-04-01T16:44:49.728Z,100.00
2023-04-01T16:47:20.197Z,100.00
2023-04-01T16:49:53.423Z,100.00
2023-04-01T16:52:53.461Z,100.00
2023-04-01T16:55:22.024Z,100.00
2023-04-01T16:57:50.753Z,100.00
2023-04-01T17:00:23.980Z,100.00
2023-04-01T17:03:11.115Z,100.00
2023-04-01T17:05:50.696Z,100.00
2023-04-01T17:08:39.372Z,100.00
2023-04-01T17:11:36.893Z,100.00
2023-04-01T17:14:25.182Z,100.00
2023-04-01T17:17:06.796Z,100.00
2023-04-01T17:20:10.977Z,100.00
2023-04-01T17:22:49.625Z,100.00
2023-04-01T17:25:39.199Z,100.00
2023-04-01T17:28:43.585Z,100.00
2023-04-01T17:31:22.365Z,100.00
2023-04-01T17:33:55.124Z,100.00
2023-04-01T17:36:31.617Z,100.00
2023-04-01T17:39:13.969Z,100.00
2023-04-01T17:41:54.777Z,100.00
2023-04-01T17:44:33.439Z,100.00
2023-04-01T17:47:07.197Z,100.00
2023-04-01T17:49:39.493Z,100.00
2023-04-01T17:52:18.145Z,100.00
2023-04-01T17:55:00.323Z,100.00
2023-04-01T17:57:35.369Z,99.63
2023-04-01T18:00:13.887Z,99.14
2023-04-01T18:02:50.773Z,99.46
2023-04-01T18:05:42.501Z,99.56
2023-04-01T18:08:50.788Z,100.00
2023-04-01T18:11:24.647Z,99.34
2023-04-01T18:14:03.305Z,99.62
2023-04-01T18:16:44.057Z,99.86
2023-04-01T18:19:35.835Z,99.72
2023-04-01T18:22:20.343Z,99.67
2023-04-01T18:25:25.732Z,99.39
2023-04-01T18:28:12.374Z,99.15
2023-04-01T18:30:40.662Z,98.92
2023-04-01T18:33:24.352Z,99.16
2023-04-01T18:36:04.993Z,99.23
2023-04-01T18:38:35.686Z,99.32
2023-04-01T18:41:11.291Z,99.22
2023-04-01T18:43:45.225Z,98.46
2023-04-01T18:46:22.217Z,98.52
2023-04-01T18:48:57.369Z,98.04
2023-04-01T18:51:35.170Z,98.61
2023-04-01T18:54:04.132Z,99.15
2023-04-01T18:56:38.793Z,99.22
2023-04-01T18:59:17.961Z,99.65
2023-04-01T19:01:58.202Z,99.68
2023-04-01T19:04:34.849Z,99.35
2023-04-01T19:07:20.869Z,99.86
2023-04-01T19:09:49.849Z,99.66
2023-04-01T19:12:31.362Z,99.61
2023-04-01T19:15:22.111Z,98.59
2023-04-01T19:18:03.789Z,97.84
2023-04-01T19:20:38.924Z,98.45
2023-04-01T19:23:27.298Z,98.60
2023-04-01T19:25:59.476Z,98.84
2023-04-01T19:28:52.137Z,98.86
2023-04-01T19:31:32.822Z,98.11
2023-04-01T19:34:09.560Z,97.95
2023-04-01T19:36:48.413Z,96.99
2023-04-01T19:39:52.537Z,96.83
2023-04-01T19:42:41.500Z,97.19
2023-04-01T19:45:14.992Z,96.67
2023-04-01T19:48:14.505Z,96.92
2023-04-01T19:50:53.080Z,96.98
2023-04-01T19:53:46.032Z,96.96
2023-04-01T19:56:18.250Z,97.48
2023-04-01T19:59:00.292Z,96.63
2023-04-01T20:01:44.611Z,96.61
2023-04-01T20:04:15.648Z,96.50
2023-04-01T20:07:08.580Z,96.76
2023-04-01T20:10:09.168Z,96.74
2023-04-01T20:12:50.587Z,96.86
2023-04-01T20:15:36.208Z,96.92
2023-04-01T20:18:24.923Z,97.03
2023-04-01T20:20:59.064Z,96.96
2023-04-01T20:23:34.708Z,96.94
2023-04-01T20:26:09.089Z,97.21
2023-04-01T20:28:49.885Z,97.30
2023-04-01T20:31:27.100Z,97.62
2023-04-01T20:34:10.515Z,97.79
2023-04-01T20:37:00.888Z,97.49
2023-04-01T20:42:38.695Z,97.00
2023-04-01T20:45:44.854Z,96.46
2023-04-01T20:48:41.996Z,96.85
2023-04-01T20:51:14.803Z,96.91
2023-04-01T20:53:59.837Z,97.33
2023-04-01T20:56:44.345Z,97.38
2023-04-01T20:59:29.407Z,97.40
2023-04-01T21:02:06.591Z,96.11
2023-04-01T21:04:48.813Z,95.70
2023-04-01T21:07:28.105Z,95.82
2023-04-01T21:10:18.217Z,96.37
2023-04-01T21:13:12.383Z,97.37
2023-04-01T21:16:04.634Z,97.41
2023-04-01T21:18:51.697Z,97.79
2023-04-01T21:21:27.504Z,97.55
2023-04-01T21:24:09.498Z,97.92
2023-04-01T21:26:47.835Z,97.74
2023-04-01T21:29:35.928Z,97.48
2023-04-01T21:32:11.283Z,97.13
2023-04-01T21:34:44.647Z,97.25
2023-04-01T21:37:18.290Z,97.37
2023-04-01T21:40:11.684Z,97.13
2023-04-01T21:43:15.924Z,96.87
2023-04-01T21:46:06.749Z,96.89
2023-04-01T21:48:53.223Z,97.05
2023-04-01T21:51:44.852Z,97.45
2023-04-01T21:54:44.203Z,96.92
2023-04-01T21:57:45.680Z,96.46
2023-04-01T22:00:25.591Z,96.62
2023-04-01T22:03:26.824Z,97.24
2023-04-01T22:06:07.910Z,97.16
2023-04-01T22:08:43.138Z,96.63
2023-04-01T22:11:37.028Z,97.28
2023-04-01T22:14:32.702Z,96.42
2023-04-01T22:17:04.602Z,96.67
2023-04-01T22:19:54.825Z,97.19
2023-04-01T22:22:27.862Z,96.97
2023-04-01T22:24:54.164Z,96.67
2023-04-01T22:27:56.876Z,95.92
2023-04-01T22:30:31.277Z,96.47
2023-04-01T22:33:06.597Z,96.81
2023-04-01T22:36:12.567Z,96.93
2023-04-01T22:38:55.906Z,96.54
2023-04-01T22:42:06.572Z,96.81
2023-04-01T22:44:45.283Z,96.36
2023-04-01T22:47:41.811Z,95.99
2023-04-01T22:50:40.830Z,96.41
2023-04-01T22:53:19.922Z,96.64
2023-04-01T22:55:53.670Z,97.13
2023-04-01T22:58:31.198Z,96.41
2023-04-01T23:01:01.109Z,95.30
2023-04-01T23:03:35.881Z,95.48
2023-04-01T23:06:04.152Z,95.08
2023-04-01T23:08:55.310Z,94.97
2023-04-01T23:11:52.891Z,94.93
2023-04-01T23:14:24.207Z,93.96
2023-04-01T23:17:02.606Z,93.56
2023-04-01T23:19:56.304Z,93.01
2023-04-01T23:22:50.215Z,92.89
2023-04-01T23:25:37.711Z,92.37
2023-04-01T23:28:20.275Z,91.66
2023-04-01T23:30:51.109Z,92.29
2023-04-01T23:33:20.808Z,92.02
2023-04-01T23:35:49.289Z,91.70
2023-04-01T23:38:16.276Z,91.42
2023-04-01T23:40:43.069Z,89.77
2023-04-01T23:43:29.650Z,89.22
2023-04-01T23:45:56.926Z,88.66
2023-04-01T23:48:29.320Z,88.90
2023-04-01T23:50:57.490Z,88.62
2023-04-01T23:53:30.732Z,88.93
2023-04-01T23:55:57.200Z,88.47
2023-04-01T23:58:27.306Z,89.14
